• Join FlightAware (Why Join?)
  • Login
  • US Flag 
09:33PM EDT


 

Airport Tracker/Info


-or-


 

Live Flight TrackerFlight Track Log ✈ AWE770 ✈ 30-Aug-2014 ✈ KPHL - TJSJ / SJU

Flight Track Log - Related Links

Times and Time Zones

All times are in EDT time to prevent confusion due to time zone crossing. See the AWE770 flight status page for this flight to view local times or setup timezone preferences in your user account.

Time Position Orientation Groundspeed Altitude Reporting Facility
EDT Latitude Longitude Course Direction KTS MPH feet Rate Location/Type
08:06AM 39.8667 -75.2833 99° East 176 203 900  Level Philadelphia TRACON
08:07AM 39.8333 -75.3333 241° Southwest 192 221 2,100 1,500 Climbing Philadelphia TRACON
08:08AM 39.7833 -75.3833 218° Southwest 260 299 3,800 2,160 Climbing Philadelphia TRACON
08:09AM 39.3681 -75.3406 185° South  Level FlightAware Approximate
08:09AM 39.7167 -75.4333 210° Southwest 276 318 6,500  Level Philadelphia TRACON
08:10AM 39.2413 -75.3640 194° South  Level FlightAware Approximate
08:10AM 39.6167 -75.4167 173° South 299 344 8,700  Level Philadelphia TRACON
08:11AM 39.1239 -75.2968 99° East  Level Estimated
08:11AM 39.5469 -75.4078 174° South 297 342 10,800  Level Washington Center
08:12AM 39.4372 -75.3981 176° South 338 389 12,000 1,200 Climbing Washington Center
08:13AM 39.3333 -75.3903 177° South 367 422 13,400 1,380 Climbing Washington Center
08:14AM 39.2292 -75.3672 170° South 386 444 14,900 1,440 Climbing Washington Center
08:15AM 39.1811 -75.2458 117° Southeast 406 467 16,400 1,260 Climbing Washington Center
08:16AM 39.1542 -75.1044 104° East 409 471 17,600 960 Climbing Washington Center
08:17AM 39.1258 -74.9597 104° East 418 481 18,400 960 Climbing Washington Center
08:18AM 39.0844 -74.7808 107° East 439 505 19,600 1,080 Climbing Washington Center
08:19AM 39.0197 -74.6475 122° Southeast 442 509 20,700 1,080 Climbing Washington Center
08:20AM 38.9544 -74.5122 122° Southeast 447 514 21,800 960 Climbing Washington Center
08:21AM 38.8864 -74.3761 123° Southeast 451 519 22,800 960 Climbing Washington Center
08:22AM 38.8192 -74.2369 122° Southeast 455 524 23,800 900 Climbing Washington Center
08:23AM 38.7500 -74.1006 123° Southeast 457 526 24,700 780 Climbing Washington Center
08:24AM 38.6636 -73.9336 123° Southeast 467 537 25,500 780 Climbing Washington Center
08:25AM 38.5881 -73.7975 125° Southeast 469 540 26,400 780 Climbing Washington Center
08:26AM 38.5125 -73.6589 125° Southeast 472 543 27,200 720 Climbing Washington Center
08:27AM 38.4625 -73.5733 127° Southeast 473 544 27,700 540 Climbing New York Center
08:28AM 38.3844 -73.4353 126° Southeast 473 544 28,200 540 Climbing New York Center
08:29AM 38.3083 -73.2947 125° Southeast 478 550 28,800 960 Climbing New York Center
08:30AM 38.2278 -73.1597 127° Southeast 483 556 30,200 960 Climbing New York Center
08:31AM 38.1492 -73.0253 127° Southeast 478 550 30,800 540 Climbing New York Center
08:32AM 38.0703 -72.8908 127° Southeast 478 550 31,400 600 Climbing New York Center
08:33AM 37.9956 -72.7517 124° Southeast 478 550 32,000 720 Climbing New York Center
08:34AM 37.9186 -72.6125 125° Southeast 485 558 32,900 720 Climbing New York Center
08:35AM 37.8436 -72.4792 125° Southeast 480 552 33,500 600 Climbing New York Center
08:36AM 37.7619 -72.3511 129° Southeast 474 545 34,100 660 Climbing New York Center
08:37AM 37.6886 -72.2053 122° Southeast 474 545 34,800 420 Climbing New York Center
08:38AM 37.6214 -72.0806 124° Southeast 474 545 35,000 60 Climbing New York Center
08:39AM 37.5372 -71.9456 128° Southeast 468 539 35,000  Level New York Center
08:40AM 37.4489 -71.8211 132° Southeast 468 539 35,000  Level New York Center
08:42AM 37.4000 -71.7000 176° South 486 559 35,000  Level New York Oceanic (ODAPS)
08:58AM 35.6333 -71.5333 168° South 477 549 35,000  Level New York Oceanic (ODAPS)
09:10AM 33.6833 -71.0333 169° South 464 534 35,000  Level New York Oceanic (ODAPS)
09:36AM 30.4000 -70.2667 169° South 478 550 35,000  Level New York Oceanic (ODAPS)
10:05AM 26.7167 -69.4500 170° South 449 517 35,000  Level New York Oceanic (ODAPS)
10:18AM 24.7986 -69.0442 167° South 471 542 35,000  Level Miami Center
10:19AM 24.7521 -69.0384 167° South 449 517 35,000  Level FlightAware Transoceanic
10:19AM 24.6467 -69.0044 167° South 466 536 35,000  Level Miami Center
10:20AM 24.6282 -69.0077 167° South 449 517 35,000  Level FlightAware Transoceanic
10:20AM 24.5203 -68.9700 166° South 466 536 35,000  Level Miami Center
10:21AM 24.5043 -68.9770 167° South 449 517 35,000  Level FlightAware Transoceanic
10:21AM 24.3928 -68.9358 166° South 466 536 35,000  Level Miami Center
10:22AM 24.3803 -68.9464 167° South 449 517 35,000  Level FlightAware Transoceanic
10:23AM 24.2564 -68.9159 167° South 449 517 35,000  Level FlightAware Transoceanic
10:23AM 24.2683 -68.9036 167° South 466 536 35,000  Level Miami Center
10:24AM 24.1324 -68.8854 167° South 449 517 35,000  Level FlightAware Transoceanic
10:24AM 24.1422 -68.8706 167° South 466 536 35,000  Level Miami Center
10:25AM 24.0192 -68.8383 167° South 463 533 35,000  Level Miami Center
10:26AM 23.8717 -68.7989 166° South 458 527 35,000  Level Miami Center
10:27AM 23.7514 -68.7678 167° South 454 522 35,000  Level Miami Center
10:28AM 23.6281 -68.7350 166° South 454 522 35,000  Level Miami Center
10:29AM 23.5047 -68.7022 166° South 453 521 35,000  Level Miami Center
10:30AM 23.3844 -68.6731 167° South 453 521 35,000  Level Miami Center
10:31AM 23.2636 -68.6428 167° South 450 518 35,000  Level Miami Center
10:32AM 23.1428 -68.6106 166° South 450 518 35,000  Level Miami Center
10:33AM 22.9983 -68.5736 167° South 448 516 35,000  Level Miami Center
10:34AM 22.8786 -68.5425 167° South 448 516 35,000  Level Miami Center
10:35AM 22.7603 -68.5122 167° South 443 510 35,000  Level Miami Center
10:36AM 22.6419 -68.4831 167° South 442 509 35,000  Level Miami Center
10:37AM 22.5231 -68.4528 167° South 441 507 35,000  Level Miami Center
10:38AM 22.4036 -68.4219 167° South 441 507 35,000  Level Miami Center
10:39AM 22.2589 -68.3844 167° South 441 507 35,000  Level Miami Center
10:40AM 22.1383 -68.3550 167° South 441 507 35,000  Level Miami Center
10:41AM 22.0175 -68.3239 167° South 441 507 35,000  Level Miami Center
10:42AM 21.8975 -68.2947 167° South 441 507 35,000  Level Miami Center
10:43AM 21.7789 -68.2642 167° South 441 507 35,000  Level Miami Center
10:44AM 21.6572 -68.2336 167° South 441 507 35,100 -60 Climbing Miami Center
10:45AM 21.5106 -68.1975 167° South 441 507 34,900 -60 Descending Miami Center
10:46AM 21.3922 -68.1686 167° South 441 507 35,000  Climbing Miami Center
10:47AM 21.2758 -68.1400 167° South 440 506 35,000  Level Miami Center
10:48AM 21.1628 -68.1122 167° South 432 497 35,000  Level Miami Center
10:49AM 21.0478 -68.0833 167° South 428 493 35,000  Level Miami Center
10:50AM 20.9294 -68.0528 166° South 428 493 35,000  Level Miami Center
10:51AM 20.8094 -68.0233 167° South 429 494 35,000  Level Miami Center
10:52AM 20.6633 -67.9864 167° South 437 503 35,000  Level Miami Center
10:54AM 20.5433 -67.9581 168° South 437 503 35,000  Level Miami Center
10:55AM 20.4214 -67.9281 167° South 439 505 35,000  Level Miami Center
10:56AM 20.3014 -67.8986 167° South 440 506 35,000  Level Miami Center
10:57AM 20.1781 -67.8683 167° South 441 507 35,000 -360 Level Miami Center
10:58AM 20.0553 -67.8394 168° South 444 511 34,300 -1,320 Descending Miami Center
10:59AM 19.9358 -67.8094 167° South 444 511 32,300 -1,620 Descending Miami Center
11:00AM 19.7928 -67.7722 166° South 444 511 31,000 -660 Descending Miami Center
11:01AM 19.6642 -67.7425 168° South 450 518 31,000  Level Miami Center
11:02AM 19.5453 -67.6956 160° South 457 526 31,000 -660 Level Miami Center
11:03AM 19.4333 -67.5500 129° Southeast 450 518 29,500 -1,680 Descending San Juan Center
11:04AM 19.3667 -67.4333 121° Southeast 450 518 27,200 -2,340 Descending San Juan Center
11:05AM 19.2833 -67.3333 131° Southeast 440 506 24,900 -2,280 Descending San Juan Center
11:06AM 19.2167 -67.2333 125° Southeast 430 495 22,700 -2,100 Descending San Juan Center
11:07AM 19.1333 -67.1333 131° Southeast 410 472 20,700 -2,100 Descending San Juan Center
11:08AM 19.0667 -67.0500 130° Southeast 400 460 18,500 -2,040 Descending San Juan Center
11:09AM 19.0000 -66.9500 125° Southeast 390 449 16,700 -1,800 Descending San Juan Center
11:10AM 18.9333 -66.8667 130° Southeast 380 437 14,900 -1,800 Descending San Juan Center
11:11AM 18.8667 -66.7667 125° Southeast 370 426 13,100 -1,680 Descending San Juan Center
11:12AM 18.8167 -66.6833 122° Southeast 360 414 11,600 -1,440 Descending San Juan Center
11:13AM 18.7500 -66.6167 137° Southeast 310 357 10,300 -1,680 Descending San Juan Center
11:14AM 18.7167 -66.5333 113° Southeast 290 334 8,300 -1,920 Descending San Juan Center
11:15AM 18.6833 -66.4667 118° Southeast 280 322 6,500 -1,740 Descending San Juan Center
11:16AM 18.6500 -66.4000 118° Southeast 260 299 4,800 -1,260 Descending San Juan Center
11:17AM 18.6167 -66.3333 118° Southeast 250 288 4,000 -420 Descending San Juan Center
11:18AM 18.6167 -66.2667 90° East 240 276 4,000  Level San Juan Center
11:19AM 18.5667 -66.2333 148° Southeast 180 207 4,000 -480 Level San Juan Center
11:20AM 18.5333 -66.2167 155° Southeast 170 196 3,100 -540 Descending San Juan Center
11:21AM 18.4833 -66.2000 162° South 170 196 3,000 -240 Descending San Juan Center
11:22AM 18.4500 -66.1667 137° Southeast 160 184 2,700 -540 Descending San Juan Center
11:23AM 18.4333 -66.1167 109° East 170 196 2,000 -780 Descending San Juan Center
11:24AM 18.4333 -66.0667 90° East 150 173 1,200 -720 Descending San Juan Center
11:25AM 18.4333 -66.0333 90° East 140 161 600 -600 Descending San Juan Center